sensor_id;sensor_type;location;lat;lon;timestamp;P1;durP1;ratioP1;P2;durP2;ratioP2
40052;SDS011;25758;48.200;16.338;2023-06-05T00:00:38;8.95;;;5.97;;
40052;SDS011;25758;48.200;16.338;2023-06-05T00:03:03;9.60;;;5.78;;
40052;SDS011;25758;48.200;16.338;2023-06-05T00:05:29;10.00;;;6.47;;
40052;SDS011;25758;48.200;16.338;2023-06-05T00:07:56;10.52;;;6.40;;
40052;SDS011;25758;48.200;16.338;2023-06-05T00:10:22;13.18;;;6.38;;
40052;SDS011;25758;48.200;16.338;2023-06-05T00:12:48;11.02;;;7.28;;
40052;SDS011;25758;48.200;16.338;2023-06-05T00:15:14;11.15;;;7.82;;
40052;SDS011;25758;48.200;16.338;2023-06-05T00:17:40;9.43;;;6.80;;
40052;SDS011;25758;48.200;16.338;2023-06-05T00:20:06;9.23;;;6.60;;
40052;SDS011;25758;48.200;16.338;2023-06-05T00:22:34;9.38;;;6.82;;
40052;SDS011;25758;48.200;16.338;2023-06-05T00:25:00;8.73;;;7.82;;
40052;SDS011;25758;48.200;16.338;2023-06-05T00:27:29;11.80;;;8.27;;
40052;SDS011;25758;48.200;16.338;2023-06-05T00:29:55;10.75;;;8.40;;
40052;SDS011;25758;48.200;16.338;2023-06-05T00:32:21;8.90;;;7.90;;
40052;SDS011;25758;48.200;16.338;2023-06-05T00:34:47;9.82;;;7.90;;
40052;SDS011;25758;48.200;16.338;2023-06-05T00:37:15;11.05;;;8.23;;
40052;SDS011;25758;48.200;16.338;2023-06-05T00:39:41;10.52;;;7.72;;
40052;SDS011;25758;48.200;16.338;2023-06-05T00:42:07;11.30;;;8.00;;
40052;SDS011;25758;48.200;16.338;2023-06-05T00:44:34;10.18;;;8.20;;
40052;SDS011;25758;48.200;16.338;2023-06-05T00:47:00;10.65;;;8.05;;
40052;SDS011;25758;48.200;16.338;2023-06-05T00:49:26;11.10;;;8.07;;
40052;SDS011;25758;48.200;16.338;2023-06-05T00:51:53;9.27;;;8.27;;
40052;SDS011;25758;48.200;16.338;2023-06-05T00:54:18;10.57;;;7.88;;
40052;SDS011;25758;48.200;16.338;2023-06-05T00:56:46;11.85;;;8.40;;
40052;SDS011;25758;48.200;16.338;2023-06-05T00:59:11;8.88;;;6.88;;
40052;SDS011;25758;48.200;16.338;2023-06-05T01:01:39;11.57;;;8.77;;
40052;SDS011;25758;48.200;16.338;2023-06-05T01:04:07;8.63;;;6.60;;
40052;SDS011;25758;48.200;16.338;2023-06-05T01:06:33;8.13;;;7.30;;
40052;SDS011;25758;48.200;16.338;2023-06-05T01:08:59;9.20;;;6.30;;
40052;SDS011;25758;48.200;16.338;2023-06-05T01:14:04;9.88;;;6.93;;
40052;SDS011;25758;48.200;16.338;2023-06-05T01:16:40;8.02;;;7.05;;
40052;SDS011;25758;48.200;16.338;2023-06-05T01:19:09;12.32;;;8.73;;
40052;SDS011;25758;48.200;16.338;2023-06-05T01:21:39;12.23;;;8.63;;
40052;SDS011;25758;48.200;16.338;2023-06-05T01:24:05;12.70;;;9.43;;
40052;SDS011;25758;48.200;16.338;2023-06-05T01:26:53;12.55;;;8.88;;
40052;SDS011;25758;48.200;16.338;2023-06-05T01:29:34;10.32;;;8.55;;
40052;SDS011;25758;48.200;16.338;2023-06-05T01:32:13;11.18;;;9.25;;
40052;SDS011;25758;48.200;16.338;2023-06-05T01:34:44;12.85;;;11.45;;
40052;SDS011;25758;48.200;16.338;2023-06-05T01:37:13;14.05;;;12.55;;
40052;SDS011;25758;48.200;16.338;2023-06-05T01:39:44;15.88;;;12.57;;
40052;SDS011;25758;48.200;16.338;2023-06-05T01:42:12;16.15;;;14.43;;
40052;SDS011;25758;48.200;16.338;2023-06-05T01:44:39;15.95;;;14.45;;
40052;SDS011;25758;48.200;16.338;2023-06-05T01:47:06;17.63;;;13.73;;
40052;SDS011;25758;48.200;16.338;2023-06-05T01:49:33;15.93;;;14.32;;
40052;SDS011;25758;48.200;16.338;2023-06-05T01:51:59;15.48;;;12.30;;
40052;SDS011;25758;48.200;16.338;2023-06-05T01:54:24;15.82;;;14.18;;
40052;SDS011;25758;48.200;16.338;2023-06-05T01:56:51;17.95;;;11.60;;
40052;SDS011;25758;48.200;16.338;2023-06-05T01:59:18;14.95;;;13.40;;
40052;SDS011;25758;48.200;16.338;2023-06-05T02:01:44;15.13;;;12.27;;
40052;SDS011;25758;48.200;16.338;2023-06-05T02:04:10;15.35;;;13.75;;
40052;SDS011;25758;48.200;16.338;2023-06-05T02:06:41;16.58;;;13.43;;
40052;SDS011;25758;48.200;16.338;2023-06-05T02:09:08;15.77;;;13.18;;
40052;SDS011;25758;48.200;16.338;2023-06-05T02:11:35;16.08;;;13.57;;
40052;SDS011;25758;48.200;16.338;2023-06-05T02:14:03;14.98;;;12.73;;
40052;SDS011;25758;48.200;16.338;2023-06-05T02:16:30;19.45;;;13.80;;
40052;SDS011;25758;48.200;16.338;2023-06-05T02:18:56;16.85;;;13.32;;
40052;SDS011;25758;48.200;16.338;2023-06-05T02:21:28;15.07;;;13.55;;
40052;SDS011;25758;48.200;16.338;2023-06-05T02:23:57;16.25;;;13.73;;
40052;SDS011;25758;48.200;16.338;2023-06-05T02:26:29;15.52;;;13.82;;
40052;SDS011;25758;48.200;16.338;2023-06-05T02:28:56;14.35;;;12.85;;
40052;SDS011;25758;48.200;16.338;2023-06-05T02:31:25;15.45;;;13.40;;
40052;SDS011;25758;48.200;16.338;2023-06-05T02:33:54;14.80;;;11.52;;
40052;SDS011;25758;48.200;16.338;2023-06-05T02:36:21;13.88;;;11.95;;
40052;SDS011;25758;48.200;16.338;2023-06-05T02:38:48;14.85;;;12.95;;
40052;SDS011;25758;48.200;16.338;2023-06-05T02:41:15;13.63;;;11.98;;
40052;SDS011;25758;48.200;16.338;2023-06-05T02:43:42;12.45;;;11.25;;
40052;SDS011;25758;48.200;16.338;2023-06-05T02:46:07;15.25;;;12.60;;
40052;SDS011;25758;48.200;16.338;2023-06-05T02:48:33;15.48;;;11.68;;
40052;SDS011;25758;48.200;16.338;2023-06-05T02:50:59;13.85;;;11.23;;
40052;SDS011;25758;48.200;16.338;2023-06-05T02:53:24;12.63;;;10.52;;
40052;SDS011;25758;48.200;16.338;2023-06-05T02:55:50;12.68;;;9.98;;
40052;SDS011;25758;48.200;16.338;2023-06-05T02:58:17;13.13;;;10.52;;
40052;SDS011;25758;48.200;16.338;2023-06-05T03:00:43;13.50;;;9.10;;
40052;SDS011;25758;48.200;16.338;2023-06-05T03:03:10;10.07;;;8.88;;
40052;SDS011;25758;48.200;16.338;2023-06-05T03:05:36;12.68;;;9.02;;
40052;SDS011;25758;48.200;16.338;2023-06-05T03:08:02;12.95;;;9.95;;
40052;SDS011;25758;48.200;16.338;2023-06-05T03:10:28;14.95;;;9.38;;
40052;SDS011;25758;48.200;16.338;2023-06-05T03:12:54;12.32;;;8.80;;
40052;SDS011;25758;48.200;16.338;2023-06-05T03:15:20;11.40;;;10.20;;
40052;SDS011;25758;48.200;16.338;2023-06-05T03:17:46;17.50;;;11.98;;
40052;SDS011;25758;48.200;16.338;2023-06-05T03:20:12;16.30;;;11.10;;
40052;SDS011;25758;48.200;16.338;2023-06-05T03:22:38;14.13;;;12.20;;
40052;SDS011;25758;48.200;16.338;2023-06-05T03:25:05;14.27;;;12.35;;
40052;SDS011;25758;48.200;16.338;2023-06-05T03:27:31;15.63;;;12.82;;
40052;SDS011;25758;48.200;16.338;2023-06-05T03:29:56;14.98;;;12.60;;
40052;SDS011;25758;48.200;16.338;2023-06-05T03:32:23;16.58;;;12.93;;
40052;SDS011;25758;48.200;16.338;2023-06-05T03:34:49;20.65;;;12.90;;
40052;SDS011;25758;48.200;16.338;2023-06-05T03:37:15;16.83;;;12.15;;
40052;SDS011;25758;48.200;16.338;2023-06-05T03:39:41;16.95;;;13.35;;
40052;SDS011;25758;48.200;16.338;2023-06-05T03:42:07;18.55;;;13.73;;
40052;SDS011;25758;48.200;16.338;2023-06-05T03:44:34;18.80;;;15.27;;
40052;SDS011;25758;48.200;16.338;2023-06-05T03:47:00;14.88;;;12.13;;
40052;SDS011;25758;48.200;16.338;2023-06-05T03:49:26;17.77;;;14.05;;
40052;SDS011;25758;48.200;16.338;2023-06-05T03:51:53;14.45;;;12.85;;
40052;SDS011;25758;48.200;16.338;2023-06-05T03:54:25;14.05;;;11.25;;
40052;SDS011;25758;48.200;16.338;2023-06-05T03:56:57;15.25;;;11.38;;
40052;SDS011;25758;48.200;16.338;2023-06-05T03:59:25;14.73;;;10.75;;
40052;SDS011;25758;48.200;16.338;2023-06-05T04:01:53;10.52;;;9.38;;
40052;SDS011;25758;48.200;16.338;2023-06-05T04:04:20;12.38;;;10.95;;
40052;SDS011;25758;48.200;16.338;2023-06-05T04:06:46;13.55;;;10.93;;
40052;SDS011;25758;48.200;16.338;2023-06-05T04:09:11;14.95;;;10.93;;
40052;SDS011;25758;48.200;16.338;2023-06-05T04:11:40;13.63;;;12.23;;
40052;SDS011;25758;48.200;16.338;2023-06-05T04:14:08;17.35;;;11.90;;
40052;SDS011;25758;48.200;16.338;2023-06-05T04:16:35;14.77;;;12.93;;
40052;SDS011;25758;48.200;16.338;2023-06-05T04:19:07;15.65;;;11.68;;
40052;SDS011;25758;48.200;16.338;2023-06-05T04:21:35;15.85;;;11.32;;
40052;SDS011;25758;48.200;16.338;2023-06-05T04:24:01;12.05;;;10.57;;
40052;SDS011;25758;48.200;16.338;2023-06-05T04:26:32;14.38;;;11.07;;
40052;SDS011;25758;48.200;16.338;2023-06-05T04:28:58;12.98;;;10.05;;
40052;SDS011;25758;48.200;16.338;2023-06-05T04:31:24;14.98;;;10.90;;
40052;SDS011;25758;48.200;16.338;2023-06-05T04:33:50;17.17;;;11.20;;
40052;SDS011;25758;48.200;16.338;2023-06-05T04:36:16;11.95;;;10.75;;
40052;SDS011;25758;48.200;16.338;2023-06-05T04:38:45;12.38;;;11.02;;
40052;SDS011;25758;48.200;16.338;2023-06-05T04:41:11;14.25;;;12.07;;
40052;SDS011;25758;48.200;16.338;2023-06-05T04:43:37;13.70;;;12.30;;
40052;SDS011;25758;48.200;16.338;2023-06-05T04:46:02;16.60;;;12.32;;
40052;SDS011;25758;48.200;16.338;2023-06-05T04:48:28;13.63;;;11.45;;
40052;SDS011;25758;48.200;16.338;2023-06-05T04:50:55;16.42;;;12.68;;
40052;SDS011;25758;48.200;16.338;2023-06-05T04:53:23;15.02;;;13.10;;
40052;SDS011;25758;48.200;16.338;2023-06-05T04:55:49;16.98;;;14.10;;
40052;SDS011;25758;48.200;16.338;2023-06-05T04:58:14;19.83;;;13.23;;
40052;SDS011;25758;48.200;16.338;2023-06-05T05:00:41;21.15;;;14.27;;
40052;SDS011;25758;48.200;16.338;2023-06-05T05:03:09;18.45;;;15.43;;
40052;SDS011;25758;48.200;16.338;2023-06-05T05:05:38;15.95;;;14.35;;
40052;SDS011;25758;48.200;16.338;2023-06-05T05:08:04;14.43;;;12.80;;
40052;SDS011;25758;48.200;16.338;2023-06-05T05:10:30;16.50;;;12.90;;
40052;SDS011;25758;48.200;16.338;2023-06-05T05:12:57;12.93;;;11.63;;
40052;SDS011;25758;48.200;16.338;2023-06-05T05:15:26;17.52;;;13.52;;
40052;SDS011;25758;48.200;16.338;2023-06-05T05:17:52;16.20;;;12.07;;
40052;SDS011;25758;48.200;16.338;2023-06-05T05:20:17;11.38;;;10.23;;
40052;SDS011;25758;48.200;16.338;2023-06-05T05:22:44;14.13;;;9.77;;
40052;SDS011;25758;48.200;16.338;2023-06-05T05:25:10;14.40;;;11.75;;
40052;SDS011;25758;48.200;16.338;2023-06-05T05:27:36;13.10;;;10.75;;
40052;SDS011;25758;48.200;16.338;2023-06-05T05:30:01;15.63;;;12.82;;
40052;SDS011;25758;48.200;16.338;2023-06-05T05:32:27;16.88;;;11.30;;
40052;SDS011;25758;48.200;16.338;2023-06-05T05:34:53;12.80;;;11.27;;
40052;SDS011;25758;48.200;16.338;2023-06-05T05:37:19;20.02;;;10.43;;
40052;SDS011;25758;48.200;16.338;2023-06-05T05:39:45;11.63;;;9.60;;
40052;SDS011;25758;48.200;16.338;2023-06-05T05:42:11;12.20;;;10.25;;
40052;SDS011;25758;48.200;16.338;2023-06-05T05:44:36;13.45;;;9.20;;
40052;SDS011;25758;48.200;16.338;2023-06-05T05:47:02;14.25;;;8.98;;
40052;SDS011;25758;48.200;16.338;2023-06-05T05:49:28;9.73;;;8.05;;
40052;SDS011;25758;48.200;16.338;2023-06-05T05:51:54;8.75;;;6.82;;
40052;SDS011;25758;48.200;16.338;2023-06-05T05:54:19;10.40;;;6.57;;
40052;SDS011;25758;48.200;16.338;2023-06-05T05:56:47;8.70;;;6.63;;
40052;SDS011;25758;48.200;16.338;2023-06-05T05:59:12;9.60;;;7.38;;
40052;SDS011;25758;48.200;16.338;2023-06-05T06:01:38;8.73;;;7.00;;
40052;SDS011;25758;48.200;16.338;2023-06-05T06:04:04;8.30;;;6.60;;
40052;SDS011;25758;48.200;16.338;2023-06-05T06:06:29;11.70;;;7.15;;
40052;SDS011;25758;48.200;16.338;2023-06-05T06:08:55;8.38;;;7.07;;
40052;SDS011;25758;48.200;16.338;2023-06-05T06:11:21;9.93;;;6.18;;
40052;SDS011;25758;48.200;16.338;2023-06-05T06:13:46;9.07;;;6.05;;
40052;SDS011;25758;48.200;16.338;2023-06-05T06:16:13;14.65;;;7.57;;
40052;SDS011;25758;48.200;16.338;2023-06-05T06:18:39;8.27;;;6.03;;
40052;SDS011;25758;48.200;16.338;2023-06-05T06:21:05;7.70;;;5.70;;
40052;SDS011;25758;48.200;16.338;2023-06-05T06:23:30;9.02;;;6.88;;
40052;SDS011;25758;48.200;16.338;2023-06-05T06:25:56;8.98;;;6.22;;
40052;SDS011;25758;48.200;16.338;2023-06-05T06:28:22;13.45;;;7.00;;
40052;SDS011;25758;48.200;16.338;2023-06-05T06:30:48;9.90;;;6.55;;
40052;SDS011;25758;48.200;16.338;2023-06-05T06:33:14;9.55;;;6.45;;
40052;SDS011;25758;48.200;16.338;2023-06-05T06:35:39;11.63;;;6.85;;
40052;SDS011;25758;48.200;16.338;2023-06-05T06:38:05;11.57;;;7.28;;
40052;SDS011;25758;48.200;16.338;2023-06-05T06:40:30;10.13;;;7.78;;
40052;SDS011;25758;48.200;16.338;2023-06-05T06:42:56;8.05;;;6.40;;
40052;SDS011;25758;48.200;16.338;2023-06-05T06:45:22;7.63;;;6.40;;
40052;SDS011;25758;48.200;16.338;2023-06-05T06:47:47;10.02;;;7.20;;
40052;SDS011;25758;48.200;16.338;2023-06-05T06:50:13;9.95;;;7.90;;
40052;SDS011;25758;48.200;16.338;2023-06-05T06:52:39;9.93;;;7.00;;
40052;SDS011;25758;48.200;16.338;2023-06-05T06:55:05;10.07;;;8.02;;
40052;SDS011;25758;48.200;16.338;2023-06-05T06:57:31;10.85;;;7.88;;
40052;SDS011;25758;48.200;16.338;2023-06-05T06:59:57;12.55;;;8.70;;
40052;SDS011;25758;48.200;16.338;2023-06-05T07:02:23;12.20;;;8.88;;
40052;SDS011;25758;48.200;16.338;2023-06-05T07:04:50;12.55;;;7.65;;
40052;SDS011;25758;48.200;16.338;2023-06-05T07:07:18;10.60;;;8.45;;
40052;SDS011;25758;48.200;16.338;2023-06-05T07:09:46;12.15;;;8.75;;
40052;SDS011;25758;48.200;16.338;2023-06-05T07:12:14;9.63;;;8.15;;
40052;SDS011;25758;48.200;16.338;2023-06-05T07:14:40;13.35;;;8.40;;
40052;SDS011;25758;48.200;16.338;2023-06-05T07:17:06;9.52;;;8.50;;
40052;SDS011;25758;48.200;16.338;2023-06-05T07:19:32;10.75;;;8.73;;
40052;SDS011;25758;48.200;16.338;2023-06-05T07:21:59;12.68;;;7.90;;
40052;SDS011;25758;48.200;16.338;2023-06-05T07:24:27;11.88;;;8.13;;
40052;SDS011;25758;48.200;16.338;2023-06-05T07:26:54;8.68;;;7.45;;
40052;SDS011;25758;48.200;16.338;2023-06-05T07:29:21;13.35;;;8.93;;
40052;SDS011;25758;48.200;16.338;2023-06-05T07:31:51;12.65;;;9.18;;
40052;SDS011;25758;48.200;16.338;2023-06-05T07:34:18;11.27;;;7.72;;
40052;SDS011;25758;48.200;16.338;2023-06-05T07:36:44;11.43;;;7.70;;
40052;SDS011;25758;48.200;16.338;2023-06-05T07:39:11;10.32;;;7.40;;
40052;SDS011;25758;48.200;16.338;2023-06-05T07:41:37;13.25;;;7.28;;
40052;SDS011;25758;48.200;16.338;2023-06-05T07:44:04;8.65;;;6.88;;
40052;SDS011;25758;48.200;16.338;2023-06-05T07:46:32;14.25;;;7.95;;
40052;SDS011;25758;48.200;16.338;2023-06-05T07:48:57;11.57;;;6.90;;
40052;SDS011;25758;48.200;16.338;2023-06-05T07:51:23;9.48;;;7.40;;
40052;SDS011;25758;48.200;16.338;2023-06-05T07:53:49;10.50;;;7.25;;
40052;SDS011;25758;48.200;16.338;2023-06-05T07:56:15;9.65;;;7.60;;
40052;SDS011;25758;48.200;16.338;2023-06-05T07:58:41;8.88;;;7.38;;
40052;SDS011;25758;48.200;16.338;2023-06-05T08:01:07;19.67;;;8.27;;
40052;SDS011;25758;48.200;16.338;2023-06-05T08:03:35;8.40;;;7.15;;
40052;SDS011;25758;48.200;16.338;2023-06-05T08:06:00;10.73;;;6.32;;
40052;SDS011;25758;48.200;16.338;2023-06-05T08:08:27;9.70;;;5.65;;
40052;SDS011;25758;48.200;16.338;2023-06-05T08:10:52;10.85;;;5.72;;
40052;SDS011;25758;48.200;16.338;2023-06-05T08:13:18;10.63;;;4.88;;
40052;SDS011;25758;48.200;16.338;2023-06-05T08:15:43;7.47;;;4.30;;
40052;SDS011;25758;48.200;16.338;2023-06-05T08:18:10;7.70;;;3.95;;
40052;SDS011;25758;48.200;16.338;2023-06-05T08:20:35;7.03;;;4.82;;
40052;SDS011;25758;48.200;16.338;2023-06-05T08:23:01;7.65;;;4.20;;
40052;SDS011;25758;48.200;16.338;2023-06-05T08:25:27;6.10;;;4.28;;
40052;SDS011;25758;48.200;16.338;2023-06-05T08:27:53;5.95;;;4.45;;
40052;SDS011;25758;48.200;16.338;2023-06-05T08:30:19;8.27;;;4.20;;
40052;SDS011;25758;48.200;16.338;2023-06-05T08:32:45;7.22;;;4.63;;
40052;SDS011;25758;48.200;16.338;2023-06-05T08:35:11;8.07;;;4.78;;
40052;SDS011;25758;48.200;16.338;2023-06-05T08:37:37;6.13;;;4.35;;
40052;SDS011;25758;48.200;16.338;2023-06-05T08:40:03;6.57;;;4.72;;
40052;SDS011;25758;48.200;16.338;2023-06-05T08:42:35;10.07;;;4.75;;
40052;SDS011;25758;48.200;16.338;2023-06-05T08:45:03;9.07;;;4.97;;
40052;SDS011;25758;48.200;16.338;2023-06-05T08:47:30;5.53;;;4.25;;
40052;SDS011;25758;48.200;16.338;2023-06-05T08:49:56;8.73;;;4.25;;
40052;SDS011;25758;48.200;16.338;2023-06-05T08:52:22;7.40;;;4.70;;
40052;SDS011;25758;48.200;16.338;2023-06-05T08:54:48;6.53;;;4.70;;
40052;SDS011;25758;48.200;16.338;2023-06-05T08:57:14;7.50;;;5.10;;
40052;SDS011;25758;48.200;16.338;2023-06-05T08:59:40;7.88;;;4.53;;
40052;SDS011;25758;48.200;16.338;2023-06-05T09:02:07;6.47;;;4.53;;
40052;SDS011;25758;48.200;16.338;2023-06-05T09:04:35;10.25;;;4.57;;
40052;SDS011;25758;48.200;16.338;2023-06-05T09:07:00;6.45;;;4.43;;
40052;SDS011;25758;48.200;16.338;2023-06-05T09:09:26;10.05;;;4.15;;
40052;SDS011;25758;48.200;16.338;2023-06-05T09:12:05;4.88;;;3.72;;
40052;SDS011;25758;48.200;16.338;2023-06-05T09:14:32;6.78;;;4.55;;
40052;SDS011;25758;48.200;16.338;2023-06-05T09:16:59;8.65;;;4.30;;
40052;SDS011;25758;48.200;16.338;2023-06-05T09:19:34;5.20;;;3.53;;
40052;SDS011;25758;48.200;16.338;2023-06-05T09:22:01;9.40;;;4.03;;
40052;SDS011;25758;48.200;16.338;2023-06-05T09:24:28;6.60;;;3.75;;
40052;SDS011;25758;48.200;16.338;2023-06-05T09:29:33;9.35;;;3.88;;
40052;SDS011;25758;48.200;16.338;2023-06-05T09:32:01;5.85;;;3.40;;
40052;SDS011;25758;48.200;16.338;2023-06-05T09:34:31;6.00;;;3.55;;
40052;SDS011;25758;48.200;16.338;2023-06-05T09:36:58;4.32;;;2.88;;
40052;SDS011;25758;48.200;16.338;2023-06-05T09:39:26;6.85;;;2.83;;
40052;SDS011;25758;48.200;16.338;2023-06-05T09:41:53;7.30;;;3.60;;
40052;SDS011;25758;48.200;16.338;2023-06-05T09:44:20;6.30;;;3.88;;
40052;SDS011;25758;48.200;16.338;2023-06-05T09:49:28;10.48;;;4.50;;
40052;SDS011;25758;48.200;16.338;2023-06-05T09:51:58;5.47;;;4.90;;
40052;SDS011;25758;48.200;16.338;2023-06-05T09:54:26;8.60;;;5.50;;
40052;SDS011;25758;48.200;16.338;2023-06-05T09:56:56;9.45;;;5.97;;
40052;SDS011;25758;48.200;16.338;2023-06-05T09:59:27;10.27;;;6.13;;
40052;SDS011;25758;48.200;16.338;2023-06-05T10:01:55;6.85;;;5.05;;
40052;SDS011;25758;48.200;16.338;2023-06-05T10:04:23;8.38;;;5.57;;
40052;SDS011;25758;48.200;16.338;2023-06-05T10:06:51;13.55;;;6.80;;
40052;SDS011;25758;48.200;16.338;2023-06-05T10:09:19;11.20;;;6.10;;
40052;SDS011;25758;48.200;16.338;2023-06-05T10:11:49;7.25;;;5.13;;
40052;SDS011;25758;48.200;16.338;2023-06-05T10:14:16;6.30;;;4.13;;
40052;SDS011;25758;48.200;16.338;2023-06-05T10:16:42;10.43;;;5.18;;
40052;SDS011;25758;48.200;16.338;2023-06-05T10:19:11;6.57;;;5.15;;
40052;SDS011;25758;48.200;16.338;2023-06-05T10:21:37;11.98;;;3.92;;
40052;SDS011;25758;48.200;16.338;2023-06-05T10:24:04;9.38;;;4.38;;
40052;SDS011;25758;48.200;16.338;2023-06-05T10:34:56;8.23;;;3.50;;
40052;SDS011;25758;48.200;16.338;2023-06-05T10:40:46;6.70;;;3.03;;
40052;SDS011;25758;48.200;16.338;2023-06-05T10:43:31;5.93;;;3.10;;
40052;SDS011;25758;48.200;16.338;2023-06-05T10:45:57;7.55;;;3.33;;
40052;SDS011;25758;48.200;16.338;2023-06-05T10:51:31;4.15;;;3.00;;
40052;SDS011;25758;48.200;16.338;2023-06-05T10:53:57;7.03;;;3.75;;
40052;SDS011;25758;48.200;16.338;2023-06-05T10:59:35;5.70;;;2.92;;
40052;SDS011;25758;48.200;16.338;2023-06-05T11:10:03;10.30;;;3.92;;
40052;SDS011;25758;48.200;16.338;2023-06-05T11:15:06;5.03;;;2.67;;
40052;SDS011;25758;48.200;16.338;2023-06-05T11:17:36;7.60;;;2.95;;
40052;SDS011;25758;48.200;16.338;2023-06-05T11:20:49;4.38;;;2.05;;
40052;SDS011;25758;48.200;16.338;2023-06-05T11:30:26;5.43;;;3.15;;
40052;SDS011;25758;48.200;16.338;2023-06-05T11:32:57;6.45;;;3.17;;
40052;SDS011;25758;48.200;16.338;2023-06-05T11:35:37;8.70;;;2.53;;
40052;SDS011;25758;48.200;16.338;2023-06-05T11:38:10;4.20;;;2.92;;
40052;SDS011;25758;48.200;16.338;2023-06-05T11:40:40;12.30;;;3.35;;
40052;SDS011;25758;48.200;16.338;2023-06-05T11:43:07;4.10;;;3.13;;
40052;SDS011;25758;48.200;16.338;2023-06-05T11:45:35;11.23;;;3.30;;
40052;SDS011;25758;48.200;16.338;2023-06-05T11:48:08;6.10;;;2.90;;
40052;SDS011;25758;48.200;16.338;2023-06-05T11:50:35;4.68;;;3.08;;
40052;SDS011;25758;48.200;16.338;2023-06-05T11:55:34;6.75;;;3.47;;
40052;SDS011;25758;48.200;16.338;2023-06-05T11:58:23;6.85;;;3.10;;
40052;SDS011;25758;48.200;16.338;2023-06-05T12:03:31;12.27;;;3.47;;
40052;SDS011;25758;48.200;16.338;2023-06-05T12:05:57;8.00;;;4.03;;
40052;SDS011;25758;48.200;16.338;2023-06-05T12:10:53;14.35;;;3.72;;
40052;SDS011;25758;48.200;16.338;2023-06-05T12:13:19;8.27;;;3.10;;
40052;SDS011;25758;48.200;16.338;2023-06-05T12:16:00;8.27;;;3.00;;
40052;SDS011;25758;48.200;16.338;2023-06-05T12:18:32;6.55;;;2.92;;
40052;SDS011;25758;48.200;16.338;2023-06-05T12:21:02;10.75;;;3.33;;
40052;SDS011;25758;48.200;16.338;2023-06-05T12:23:30;8.73;;;2.80;;
40052;SDS011;25758;48.200;16.338;2023-06-05T12:26:01;4.53;;;2.78;;
40052;SDS011;25758;48.200;16.338;2023-06-05T12:28:28;5.25;;;2.60;;
40052;SDS011;25758;48.200;16.338;2023-06-05T12:30:55;5.18;;;2.65;;
40052;SDS011;25758;48.200;16.338;2023-06-05T12:33:21;5.97;;;2.63;;
40052;SDS011;25758;48.200;16.338;2023-06-05T12:36:01;10.07;;;3.20;;
40052;SDS011;25758;48.200;16.338;2023-06-05T12:38:30;5.38;;;2.45;;
40052;SDS011;25758;48.200;16.338;2023-06-05T12:40:55;7.35;;;2.15;;
40052;SDS011;25758;48.200;16.338;2023-06-05T12:43:22;8.30;;;2.53;;
40052;SDS011;25758;48.200;16.338;2023-06-05T12:45:48;10.07;;;2.45;;
40052;SDS011;25758;48.200;16.338;2023-06-05T12:48:15;4.72;;;2.67;;
40052;SDS011;25758;48.200;16.338;2023-06-05T12:50:40;4.57;;;2.22;;
40052;SDS011;25758;48.200;16.338;2023-06-05T12:53:07;6.13;;;2.65;;
40052;SDS011;25758;48.200;16.338;2023-06-05T12:55:33;4.80;;;2.97;;
40052;SDS011;25758;48.200;16.338;2023-06-05T12:57:59;5.75;;;2.70;;
40052;SDS011;25758;48.200;16.338;2023-06-05T13:00:25;3.35;;;2.28;;
40052;SDS011;25758;48.200;16.338;2023-06-05T13:02:50;6.13;;;2.75;;
40052;SDS011;25758;48.200;16.338;2023-06-05T13:05:16;8.52;;;2.83;;
40052;SDS011;25758;48.200;16.338;2023-06-05T13:07:41;5.78;;;3.10;;
40052;SDS011;25758;48.200;16.338;2023-06-05T13:10:07;6.13;;;2.88;;
40052;SDS011;25758;48.200;16.338;2023-06-05T13:12:35;5.97;;;2.70;;
40052;SDS011;25758;48.200;16.338;2023-06-05T13:15:01;6.03;;;3.15;;
40052;SDS011;25758;48.200;16.338;2023-06-05T13:17:28;5.00;;;2.55;;
40052;SDS011;25758;48.200;16.338;2023-06-05T13:19:58;6.80;;;2.28;;
40052;SDS011;25758;48.200;16.338;2023-06-05T13:22:24;5.60;;;2.17;;
40052;SDS011;25758;48.200;16.338;2023-06-05T13:24:50;4.93;;;3.10;;
40052;SDS011;25758;48.200;16.338;2023-06-05T13:27:16;6.13;;;3.45;;
40052;SDS011;25758;48.200;16.338;2023-06-05T13:29:43;6.43;;;2.80;;
40052;SDS011;25758;48.200;16.338;2023-06-05T13:32:09;6.10;;;2.92;;
40052;SDS011;25758;48.200;16.338;2023-06-05T13:34:35;7.63;;;2.92;;
40052;SDS011;25758;48.200;16.338;2023-06-05T13:37:01;9.32;;;2.97;;
40052;SDS011;25758;48.200;16.338;2023-06-05T13:39:28;8.30;;;2.55;;
40052;SDS011;25758;48.200;16.338;2023-06-05T13:41:53;8.80;;;3.25;;
40052;SDS011;25758;48.200;16.338;2023-06-05T13:44:19;7.00;;;3.47;;
40052;SDS011;25758;48.200;16.338;2023-06-05T13:46:45;5.07;;;2.65;;
40052;SDS011;25758;48.200;16.338;2023-06-05T13:49:11;6.22;;;2.95;;
40052;SDS011;25758;48.200;16.338;2023-06-05T13:51:36;13.68;;;3.67;;
40052;SDS011;25758;48.200;16.338;2023-06-05T13:54:03;7.07;;;3.15;;
40052;SDS011;25758;48.200;16.338;2023-06-05T13:56:30;6.10;;;2.63;;
40052;SDS011;25758;48.200;16.338;2023-06-05T13:58:55;8.57;;;4.22;;
40052;SDS011;25758;48.200;16.338;2023-06-05T14:01:22;7.15;;;2.40;;
40052;SDS011;25758;48.200;16.338;2023-06-05T14:03:48;8.10;;;3.15;;
40052;SDS011;25758;48.200;16.338;2023-06-05T14:06:15;5.45;;;2.95;;
40052;SDS011;25758;48.200;16.338;2023-06-05T14:08:42;12.60;;;3.33;;
40052;SDS011;25758;48.200;16.338;2023-06-05T14:11:08;5.18;;;2.58;;
40052;SDS011;25758;48.200;16.338;2023-06-05T14:13:34;8.68;;;2.75;;
40052;SDS011;25758;48.200;16.338;2023-06-05T14:16:00;5.28;;;2.90;;
40052;SDS011;25758;48.200;16.338;2023-06-05T14:18:28;8.60;;;3.63;;
40052;SDS011;25758;48.200;16.338;2023-06-05T14:20:54;5.57;;;2.65;;
40052;SDS011;25758;48.200;16.338;2023-06-05T14:23:20;5.07;;;3.00;;
40052;SDS011;25758;48.200;16.338;2023-06-05T14:25:48;7.80;;;3.65;;
40052;SDS011;25758;48.200;16.338;2023-06-05T14:28:14;8.43;;;2.78;;
40052;SDS011;25758;48.200;16.338;2023-06-05T14:30:40;4.75;;;2.50;;
40052;SDS011;25758;48.200;16.338;2023-06-05T14:33:05;5.28;;;3.03;;
40052;SDS011;25758;48.200;16.338;2023-06-05T14:35:31;11.77;;;3.97;;
40052;SDS011;25758;48.200;16.338;2023-06-05T14:37:57;9.25;;;3.97;;
40052;SDS011;25758;48.200;16.338;2023-06-05T14:40:22;5.90;;;3.90;;
40052;SDS011;25758;48.200;16.338;2023-06-05T14:42:51;7.65;;;3.38;;
40052;SDS011;25758;48.200;16.338;2023-06-05T14:45:17;7.65;;;3.88;;
40052;SDS011;25758;48.200;16.338;2023-06-05T14:47:43;10.02;;;3.33;;
40052;SDS011;25758;48.200;16.338;2023-06-05T14:50:10;5.95;;;3.72;;
40052;SDS011;25758;48.200;16.338;2023-06-05T14:52:35;6.55;;;3.83;;
40052;SDS011;25758;48.200;16.338;2023-06-05T14:55:01;7.63;;;3.67;;
40052;SDS011;25758;48.200;16.338;2023-06-05T14:57:28;7.22;;;3.90;;
40052;SDS011;25758;48.200;16.338;2023-06-05T14:59:53;9.82;;;4.45;;
40052;SDS011;25758;48.200;16.338;2023-06-05T15:02:20;7.72;;;4.70;;
40052;SDS011;25758;48.200;16.338;2023-06-05T15:04:47;8.32;;;4.38;;
40052;SDS011;25758;48.200;16.338;2023-06-05T15:07:23;8.70;;;4.07;;
40052;SDS011;25758;48.200;16.338;2023-06-05T15:09:49;6.03;;;3.58;;
40052;SDS011;25758;48.200;16.338;2023-06-05T15:12:16;5.65;;;3.50;;
40052;SDS011;25758;48.200;16.338;2023-06-05T15:14:42;3.30;;;2.67;;